Time;durP1;ratioP1;P1;durP2;ratioP2;P2;SDS_P1;SDS_P2;PMS_P1;PMS_P2;Temp;Humidity;BMP_temperature;BMP_pressure;BME280_temperature;BME280_humidity;BME280_pressure;Samples;Min_cycle;Max_cycle;Signal;HPM_P1;HPM_P2
2021/04/20 00:00:17;;;;;;;17.62;9.30;;;;;;;27.90;33.17;158493.02;1808036;79;21309;-71
2021/04/20 00:02:50;;;;;;;14.63;9.20;;;;;;;27.78;33.22;158462.45;1804482;79;21744;-70
2021/04/20 00:05:24;;;;;;;13.45;8.88;;;;;;;27.61;33.62;158415.86;1791098;80;21170;-70
2021/04/20 00:07:56;;;;;;;14.15;8.58;;;;;;;27.78;33.41;158461.09;1793736;80;21210;-70
2021/04/20 00:10:28;;;;;;;15.13;8.05;;;;;;;27.77;33.46;158458.48;1789703;79;21359;-72
2021/04/20 00:13:01;;;;;;;14.07;8.33;;;;;;;27.70;33.53;158439.83;1777697;79;21208;-70
2021/04/20 00:15:34;;;;;;;14.28;8.10;;;;;;;27.78;33.38;158461.09;1812424;79;21304;-71
2021/04/20 00:18:07;;;;;;;16.55;9.60;;;;;;;27.73;33.45;158449.13;1792845;79;21348;-71
2021/04/20 00:20:40;;;;;;;15.23;9.13;;;;;;;27.50;33.59;158387.91;1799191;79;21257;-71
2021/04/20 00:23:12;;;;;;;15.93;9.68;;;;;;;27.28;33.84;158326.75;1796354;79;21209;-70
2021/04/20 00:25:44;;;;;;;15.85;8.98;;;;;;;27.27;33.72;158324.09;1760337;81;21163;-70
2021/04/20 00:28:28;;;;;;;17.52;9.40;;;;;;;27.00;34.05;158253.59;1758336;81;21360;-70
2021/04/20 00:31:00;;;;;;;15.40;9.55;;;;;;;26.99;34.13;158250.94;1797056;79;21416;-72
2021/04/20 00:33:33;;;;;;;16.65;9.20;;;;;;;27.01;34.08;158254.95;1800076;79;21210;-70
2021/04/20 00:36:06;;;;;;;18.12;9.03;;;;;;;26.95;34.10;158238.97;1800680;79;21351;-78
2021/04/20 00:38:39;;;;;;;12.75;7.87;;;;;;;26.83;34.23;158208.44;1774900;79;21297;-70
2021/04/20 00:41:14;;;;;;;17.95;8.75;;;;;;;26.74;34.43;158184.47;1760422;80;21345;-72
2021/04/20 00:43:48;;;;;;;17.05;9.20;;;;;;;26.85;34.33;158213.70;1793951;79;21336;-70
2021/04/20 00:46:24;;;;;;;12.37;7.80;;;;;;;26.59;34.65;158144.64;1798574;79;21185;-69
2021/04/20 00:48:57;;;;;;;14.87;9.78;;;;;;;26.97;34.32;158245.59;1781938;79;21238;-71
2021/04/20 00:51:29;;;;;;;14.15;8.25;;;;;;;27.03;34.36;158261.64;1756938;81;21446;-70
2021/04/20 00:54:01;;;;;;;14.38;7.50;;;;;;;27.17;34.29;158298.88;1772816;80;21246;-71
2021/04/20 00:56:34;;;;;;;14.03;8.00;;;;;;;27.19;34.27;158304.19;1798725;79;21407;-71
2021/04/20 00:59:06;;;;;;;13.62;8.68;;;;;;;27.24;34.21;158316.16;1801324;79;21174;-71
2021/04/20 01:01:39;;;;;;;13.35;8.43;;;;;;;27.26;34.20;158321.42;1801285;79;21213;-70
2021/04/20 01:04:16;;;;;;;19.23;8.70;;;;;;;27.23;34.19;158313.48;1797716;79;21288;-70
2021/04/20 01:06:50;;;;;;;14.40;8.30;;;;;;;27.24;34.17;158316.16;1794842;79;21809;-71
2021/04/20 01:09:22;;;;;;;14.75;8.63;;;;;;;27.23;34.20;158313.48;1780870;79;21198;-72
2021/04/20 01:11:55;;;;;;;14.15;8.88;;;;;;;27.19;34.20;158304.19;1777558;79;21341;-71
2021/04/20 01:14:27;;;;;;;16.93;9.18;;;;;;;27.16;34.23;158296.20;1801174;79;21198;-69
2021/04/20 01:16:59;;;;;;;16.12;9.23;;;;;;;27.13;34.18;158288.22;1801506;79;21177;-71
2021/04/20 01:20:00;;;;;;;15.25;9.33;;;;;;;27.08;34.24;158273.59;1801396;79;21300;-70
2021/04/20 01:22:35;;;;;;;15.23;9.28;;;;;;;27.06;34.26;158268.27;1801018;79;21189;-70
2021/04/20 01:25:08;;;;;;;17.32;8.88;;;;;;;27.02;34.31;158258.97;1801208;79;21407;-71
2021/04/20 01:27:41;;;;;;;15.48;9.85;;;;;;;27.01;34.31;158256.25;1773410;79;21371;-70
2021/04/20 01:30:14;;;;;;;14.10;9.05;;;;;;;26.95;34.42;158240.33;1801362;79;21329;-70
2021/04/20 01:32:46;;;;;;;15.30;9.15;;;;;;;26.90;34.48;158227.02;1801318;79;21733;-70
2021/04/20 01:35:18;;;;;;;14.05;8.38;;;;;;;26.89;34.51;158224.36;1801490;79;21313;-70
2021/04/20 01:37:51;;;;;;;12.50;8.15;;;;;;;26.89;34.55;158223.05;1801202;79;21214;-70
2021/04/20 01:40:23;;;;;;;17.23;9.63;;;;;;;26.64;34.84;158157.91;1794803;79;21178;-70
2021/04/20 01:42:56;;;;;;;15.40;8.73;;;;;;;26.89;34.58;158223.05;1778870;79;21352;-71
2021/04/20 01:45:30;;;;;;;15.13;8.00;;;;;;;26.76;34.58;158188.50;1788032;80;21292;-70
2021/04/20 01:48:02;;;;;;;14.15;8.48;;;;;;;26.72;34.69;158177.84;1790998;80;21162;-70
2021/04/20 01:50:35;;;;;;;13.22;8.15;;;;;;;26.95;34.35;158238.97;1779700;79;21836;-70
2021/04/20 01:53:07;;;;;;;16.20;8.33;;;;;;;26.50;34.80;158118.08;1801442;79;21392;-70
2021/04/20 01:55:40;;;;;;;14.95;8.93;;;;;;;26.44;34.94;158102.11;1801260;79;21805;-72
2021/04/20 01:58:13;;;;;;;16.35;9.35;;;;;;;26.57;34.73;158137.95;1767142;79;21344;-71
2021/04/20 02:00:45;;;;;;;16.65;8.48;;;;;;;26.50;34.96;158119.38;1795277;79;21196;-70
2021/04/20 02:03:18;;;;;;;12.60;8.65;;;;;;;26.89;34.38;158224.36;1774052;79;21301;-70
2021/04/20 02:05:50;;;;;;;13.40;8.78;;;;;;;26.76;34.63;158188.50;1755933;82;21182;-70
2021/04/20 02:08:23;;;;;;;13.00;8.65;;;;;;;26.93;34.36;158233.66;1780313;79;21336;-71
2021/04/20 02:10:56;;;;;;;14.63;9.08;;;;;;;26.42;35.02;158096.78;1801668;79;21411;-70
2021/04/20 02:13:28;;;;;;;13.25;8.65;;;;;;;26.42;35.07;158096.78;1779631;79;21324;-70
2021/04/20 02:16:07;;;;;;;14.18;9.53;;;;;;;26.45;35.04;158104.77;1759819;79;21361;-70
2021/04/20 02:18:46;;;;;;;15.48;8.40;;;;;;;26.85;34.67;158213.70;1756605;81;21317;-71
2021/04/20 02:21:19;;;;;;;14.80;8.40;;;;;;;26.97;34.41;158245.59;1759148;81;21385;-71
2021/04/20 02:23:51;;;;;;;11.57;7.33;;;;;;;26.96;34.42;158241.64;1773377;81;21356;-70
2021/04/20 02:26:36;;;;;;;11.45;7.37;;;;;;;26.96;34.40;158241.64;1773364;81;21361;-70
2021/04/20 02:29:10;;;;;;;12.15;7.62;;;;;;;26.96;34.37;158243.00;1762667;81;21246;-72
2021/04/20 02:31:43;;;;;;;12.13;7.42;;;;;;;26.94;34.37;158236.31;1769995;81;21214;-70
2021/04/20 02:34:16;;;;;;;15.00;7.97;;;;;;;26.92;34.41;158232.34;1736724;82;21195;-70
2021/04/20 02:36:49;;;;;;;15.43;8.13;;;;;;;26.90;34.45;158225.72;1770648;81;21198;-71
2021/04/20 02:39:21;;;;;;;13.40;8.70;;;;;;;26.44;34.95;158103.47;1725629;81;21793;-72
2021/04/20 02:41:54;;;;;;;13.05;8.05;;;;;;;26.47;34.91;158110.09;1773550;81;21292;-70
2021/04/20 02:44:27;;;;;;;18.35;9.80;;;;;;;26.78;34.53;158193.81;1752489;81;21887;-71
2021/04/20 02:47:00;;;;;;;13.38;8.53;;;;;;;26.74;34.54;158184.47;1752855;81;21807;-71
2021/04/20 02:49:34;;;;;;;16.23;9.18;;;;;;;26.74;34.48;158184.47;1775674;81;21677;-71
2021/04/20 02:52:08;;;;;;;13.35;8.45;;;;;;;26.73;34.47;158180.50;1755609;80;21240;-70
2021/04/20 02:54:41;;;;;;;12.58;7.95;;;;;;;26.68;34.50;158168.55;1714334;82;21841;-72
2021/04/20 02:57:13;;;;;;;14.23;8.53;;;;;;;26.70;34.44;158173.88;1748568;81;21288;-71
2021/04/20 02:59:45;;;;;;;16.80;9.30;;;;;;;26.78;34.43;158193.81;1741113;82;21316;-70
2021/04/20 03:02:18;;;;;;;16.00;9.08;;;;;;;26.83;34.40;158208.44;1741126;82;21852;-71
2021/04/20 03:04:51;;;;;;;14.10;9.25;;;;;;;26.88;34.41;158221.69;1723668;82;21328;-71
2021/04/20 03:07:24;;;;;;;15.65;8.80;;;;;;;26.96;34.36;158243.00;1722366;82;21702;-71
2021/04/20 03:09:57;;;;;;;16.32;8.85;;;;;;;26.89;34.44;158224.36;1710776;84;21317;-71
2021/04/20 03:12:29;;;;;;;14.60;8.70;;;;;;;26.77;34.70;158191.16;1667720;85;21270;-71
2021/04/20 03:15:03;;;;;;;12.65;8.15;;;;;;;26.85;34.59;158213.70;1741079;82;22516;-70
2021/04/20 03:17:35;;;;;;;16.15;8.90;;;;;;;26.80;34.65;158199.09;1764059;81;21317;-72
2021/04/20 03:20:09;;;;;;;13.43;8.60;;;;;;;27.01;34.50;158256.25;1768604;81;21195;-70
2021/04/20 03:22:43;;;;;;;13.30;8.58;;;;;;;27.23;34.27;158314.78;1776339;79;21344;-70
2021/04/20 03:25:25;;;;;;;15.78;8.38;;;;;;;27.27;34.25;158325.45;1818952;78;21307;-71
2021/04/20 03:27:58;;;;;;;;;;;;;;;27.21;34.44;158308.16;1828631;78;21212;-71
2021/04/20 03:30:32;;;;;;;12.20;7.40;;;;;;;27.31;34.28;158336.09;1825037;78;20523;-72
2021/04/20 03:33:20;;;;;;;12.40;8.18;;;;;;;27.45;34.18;158373.28;1805098;78;22298;-70
2021/04/20 03:36:15;;;;;;;10.23;7.50;;;;;;;27.49;34.18;158383.94;1785034;80;21303;-71
2021/04/20 03:39:10;;;;;;;11.73;7.67;;;;;;;27.47;34.24;158377.31;1768763;80;21835;-71
2021/04/20 03:42:02;;;;;;;14.93;7.95;;;;;;;27.43;34.30;158367.95;1777354;80;21679;-71
2021/04/20 03:44:44;;;;;;;10.63;7.50;;;;;;;27.74;34.01;158451.80;1757906;80;21310;-71
2021/04/20 03:47:24;;;;;;;14.35;7.62;;;;;;;27.79;33.98;158465.12;1734559;82;21209;-72
2021/04/20 03:49:57;;;;;;;;;;;;;;;27.87;33.86;158485.08;1731497;82;21352;-70
2021/04/20 03:52:41;;;;;;;11.55;7.37;;;;;;;27.86;33.93;158482.41;1730509;82;20706;-71
2021/04/20 03:55:15;;;;;;;10.95;7.35;;;;;;;27.90;33.96;158494.38;1805645;78;22136;-72
2021/04/20 03:57:47;;;;;;;10.03;6.95;;;;;;;28.00;33.96;158519.66;1811878;78;21704;-71
2021/04/20 04:00:20;;;;;;;11.20;7.50;;;;;;;28.16;33.73;158562.20;1813247;78;21178;-75
2021/04/20 04:02:55;;;;;;;10.23;6.90;;;;;;;28.14;33.73;158556.88;1816833;78;21799;-72
2021/04/20 04:05:29;;;;;;;10.20;7.17;;;;;;;27.54;34.47;158397.25;1803899;78;21849;-71
2021/04/20 04:08:02;;;;;;;12.07;7.35;;;;;;;27.47;34.53;158377.31;1811614;78;21207;-71
2021/04/20 04:10:35;;;;;;;12.85;6.92;;;;;;;27.94;33.94;158505.03;1793638;80;21795;-76
2021/04/20 04:13:07;;;;;;;9.43;6.35;;;;;;;27.92;33.94;158498.34;1808040;78;21320;-75
2021/04/20 04:15:40;;;;;;;10.95;7.33;;;;;;;27.89;33.93;158490.41;1805750;78;21177;-74
2021/04/20 04:18:14;;;;;;;10.82;7.10;;;;;;;27.88;33.97;158489.05;1822275;78;21160;-72
2021/04/20 04:20:51;;;;;;;11.33;6.72;;;;;;;27.92;33.96;158499.70;1815073;78;21162;-71
2021/04/20 04:23:32;;;;;;;10.38;7.05;;;;;;;27.48;34.40;158381.28;1816654;78;21175;-72
2021/04/20 04:26:08;;;;;;;9.60;6.80;;;;;;;27.73;34.18;158447.83;1793620;79;21174;-72
2021/04/20 04:28:41;;;;;;;9.68;6.12;;;;;;;27.83;34.11;158474.42;1814164;79;21304;-72
2021/04/20 04:31:14;;;;;;;9.58;6.37;;;;;;;27.84;34.11;158478.39;1788994;79;21210;-75
2021/04/20 04:33:46;;;;;;;9.85;6.33;;;;;;;27.82;34.20;158473.11;1807905;79;21335;-72
2021/04/20 04:36:19;;;;;;;9.70;6.05;;;;;;;27.84;34.14;158478.39;1813773;79;21363;-75
2021/04/20 04:38:51;;;;;;;9.30;6.45;;;;;;;27.89;34.14;158490.41;1803442;79;21327;-74
2021/04/20 04:41:24;;;;;;;9.38;6.83;;;;;;;27.96;34.14;158510.31;1785635;79;21879;-73
2021/04/20 04:43:56;;;;;;;9.28;6.47;;;;;;;27.77;34.31;158459.78;1812783;79;21374;-74
2021/04/20 04:46:29;;;;;;;10.55;6.67;;;;;;;27.62;34.63;158419.83;1797803;77;21285;-78
2021/04/20 04:49:02;;;;;;;8.98;5.83;;;;;;;27.73;34.62;158449.13;1816649;77;21403;-75
2021/04/20 04:51:35;;;;;;;9.18;5.87;;;;;;;27.84;34.40;158478.39;1793506;79;21193;-75
2021/04/20 04:54:22;;;;;;;8.00;6.40;;;;;;;28.20;33.98;158572.86;1796965;78;21907;-75
2021/04/20 04:56:55;;;;;;;9.10;6.10;;;;;;;28.24;33.88;158583.58;1783497;79;21217;-73
2021/04/20 04:59:27;;;;;;;8.35;6.08;;;;;;;28.34;33.83;158611.48;1785766;79;21931;-84
2021/04/20 05:02:00;;;;;;;9.05;6.00;;;;;;;28.26;33.89;158590.22;1797948;79;21883;-77
2021/04/20 05:04:32;;;;;;;8.78;6.75;;;;;;;28.27;33.86;158592.88;1809844;79;21202;-76
2021/04/20 05:07:07;;;;;;;9.88;6.12;;;;;;;28.28;33.97;158594.19;1810273;77;21142;-72
2021/04/20 05:09:40;;;;;;;9.85;6.47;;;;;;;28.37;33.98;158619.48;1824835;77;21359;-75
2021/04/20 05:12:12;;;;;;;14.68;6.28;;;;;;;28.52;33.81;158659.42;1819679;77;21210;-73
2021/04/20 05:14:45;;;;;;;8.55;5.92;;;;;;;28.50;33.72;158654.09;1811753;79;21908;-71
2021/04/20 05:17:17;;;;;;;13.05;6.33;;;;;;;28.60;33.64;158680.69;1806441;79;21161;-71
2021/04/20 05:19:49;;;;;;;9.65;6.53;;;;;;;28.68;33.52;158701.97;1756036;79;21787;-72
2021/04/20 05:22:22;;;;;;;8.70;6.22;;;;;;;28.83;33.44;158741.97;1809658;79;21399;-70
2021/04/20 05:24:54;;;;;;;9.85;6.05;;;;;;;28.93;33.24;158769.94;1815438;78;21366;-71
2021/04/20 05:27:26;;;;;;;8.95;6.12;;;;;;;28.92;33.26;158767.28;1816331;78;21225;-71
2021/04/20 05:29:58;;;;;;;9.65;5.40;;;;;;;29.00;33.27;158787.19;1814376;79;21665;-71
2021/04/20 05:32:38;;;;;;;8.23;5.20;;;;;;;29.09;33.27;158811.20;1814463;79;21407;-69
2021/04/20 05:35:11;;;;;;;7.20;4.95;;;;;;;29.35;32.80;158881.75;1756174;80;21336;-69
2021/04/20 05:37:44;;;;;;;6.95;5.20;;;;;;;29.48;32.70;158917.75;1770797;81;21257;-69
2021/04/20 05:40:26;;;;;;;7.12;5.10;;;;;;;29.77;32.56;158995.02;1747773;82;21745;-70
2021/04/20 05:42:58;;;;;;;7.85;4.70;;;;;;;29.98;32.39;159051.00;1746888;82;21222;-69
2021/04/20 05:45:31;;;;;;;6.47;4.78;;;;;;;30.24;32.15;159118.94;1786678;80;21174;-70
2021/04/20 05:48:03;;;;;;;7.90;4.55;;;;;;;30.41;31.86;159165.56;1786774;80;21252;-69
2021/04/20 05:50:36;;;;;;;6.53;4.92;;;;;;;30.64;31.65;159226.94;1786709;80;21193;-69
2021/04/20 05:53:11;;;;;;;6.42;4.42;;;;;;;30.80;31.47;159269.59;1786859;80;21173;-70
2021/04/20 05:55:43;;;;;;;6.60;3.92;;;;;;;30.91;31.39;159298.92;1778546;80;21185;-71
2021/04/20 05:58:16;;;;;;;6.30;4.78;;;;;;;31.00;31.25;159322.91;1771086;81;21701;-71
2021/04/20 06:00:49;;;;;;;5.97;5.03;;;;;;;31.03;31.08;159332.28;1747993;82;21189;-70
2021/04/20 06:03:21;;;;;;;7.40;5.28;;;;;;;30.99;30.90;159321.59;1746890;82;21186;-69
2021/04/20 06:05:54;;;;;;;7.10;4.15;;;;;;;30.88;31.35;159292.28;1786751;80;21732;-70
2021/04/20 06:08:26;;;;;;;4.83;3.75;;;;;;;30.89;30.98;159293.58;1778619;80;21202;-71
2021/04/20 06:10:59;;;;;;;5.40;4.00;;;;;;;30.89;31.00;159294.94;1770874;81;21272;-70
2021/04/20 06:13:32;;;;;;;5.45;4.00;;;;;;;30.88;30.87;159290.91;1747866;82;21856;-70
2021/04/20 06:16:04;;;;;;;5.10;3.95;;;;;;;30.90;30.72;159297.56;1747043;82;21842;-71
2021/04/20 06:18:39;;;;;;;5.35;4.20;;;;;;;30.86;30.89;159286.94;1786774;80;21205;-71
2021/04/20 06:21:12;;;;;;;4.20;3.45;;;;;;;30.80;31.18;159269.59;1787120;80;21407;-70
2021/04/20 06:23:45;;;;;;;7.75;3.50;;;;;;;30.98;31.00;159318.92;1786746;80;21273;-72
2021/04/20 06:26:17;;;;;;;5.28;3.65;;;;;;;31.26;30.85;159392.31;1783031;80;21193;-70
2021/04/20 06:28:50;;;;;;;3.87;3.40;;;;;;;31.70;30.31;159511.06;1771004;81;21178;-70
2021/04/20 06:31:23;;;;;;;5.08;3.70;;;;;;;32.03;30.24;159599.09;1763263;81;21376;-70
2021/04/20 06:33:55;;;;;;;5.25;3.98;;;;;;;32.34;29.55;159684.53;1744817;82;21213;-70
2021/04/20 06:36:27;;;;;;;4.35;3.42;;;;;;;32.55;29.60;159739.27;1771302;81;21859;-72
2021/04/20 06:39:00;;;;;;;4.53;3.65;;;;;;;32.69;29.50;159776.70;1771064;81;21419;-71
2021/04/20 06:41:33;;;;;;;4.25;3.45;;;;;;;32.75;29.05;159794.06;1744854;82;21186;-72
2021/04/20 06:44:31;;;;;;;6.08;3.95;;;;;;;32.66;28.88;159769.98;1771113;81;21226;-73
2021/04/20 06:47:15;;;;;;;5.42;4.10;;;;;;;32.33;28.89;159681.86;1771312;81;21321;-72
2021/04/20 06:50:04;;;;;;;7.90;4.50;;;;;;;32.25;29.07;159660.53;1771091;81;21368;-73
2021/04/20 06:52:52;;;;;;;6.28;4.97;;;;;;;32.24;29.34;159657.86;1757159;81;21352;-71
2021/04/20 06:55:29;;;;;;;5.95;4.37;;;;;;;32.31;29.49;159676.52;1768661;81;21340;-71
2021/04/20 06:58:16;;;;;;;4.42;3.98;;;;;;;32.27;29.54;159664.52;1770999;81;21230;-71
2021/04/20 07:00:55;;;;;;;5.50;4.22;;;;;;;32.26;29.85;159661.84;1782319;80;21320;-71
2021/04/20 07:03:35;;;;;;;5.50;3.95;;;;;;;32.29;29.41;159671.17;1785506;80;21178;-71
2021/04/20 07:06:13;;;;;;;5.70;4.12;;;;;;;32.21;29.42;159648.53;1760629;80;21398;-72
2021/04/20 07:08:53;;;;;;;8.88;4.10;;;;;;;32.11;29.67;159620.48;1779641;80;21189;-71
2021/04/20 07:11:26;;;;;;;7.90;4.50;;;;;;;32.12;29.44;159624.47;1779614;80;21320;-71
2021/04/20 07:13:59;;;;;;;5.53;4.42;;;;;;;31.89;29.78;159561.73;1779632;80;21194;-71
2021/04/20 07:16:39;;;;;;;6.45;4.75;;;;;;;32.02;29.88;159596.42;1779520;80;21201;-70
2021/04/20 07:19:32;;;;;;;5.40;4.00;;;;;;;31.86;29.87;159553.72;1779695;80;21339;-71
2021/04/20 07:22:15;;;;;;;4.45;3.62;;;;;;;32.13;29.36;159625.83;1779697;80;21731;-71
2021/04/20 07:25:14;;;;;;;4.35;3.05;;;;;;;32.20;29.36;159645.84;1779667;80;21198;-71
2021/04/20 07:28:30;;;;;;;4.37;3.37;;;;;;;32.25;29.20;159660.53;1785470;79;21381;-71
2021/04/20 07:31:25;;;;;;;3.42;2.67;;;;;;;32.27;29.29;159665.88;1793535;80;21407;-72
2021/04/20 07:34:21;;;;;;;5.78;2.98;;;;;;;32.34;29.13;159683.22;1751050;80;21155;-71
2021/04/20 07:37:23;;;;;;;5.12;3.40;;;;;;;32.39;28.96;159696.53;1792122;80;21813;-72
2021/04/20 07:40:13;;;;;;;4.00;3.17;;;;;;;32.37;28.96;159691.19;1793686;80;21852;-71
2021/04/20 07:43:19;;;;;;;4.12;3.00;;;;;;;32.34;29.03;159683.22;1793416;80;21179;-72
2021/04/20 07:46:10;;;;;;;4.58;3.45;;;;;;;32.27;28.93;159665.88;1793481;80;21309;-71
2021/04/20 07:49:06;;;;;;;2.95;2.62;;;;;;;32.35;29.22;159685.84;1793584;80;21368;-71
2021/04/20 07:51:58;;;;;;;4.12;2.60;;;;;;;32.74;29.19;159790.02;1745028;82;21217;-72
2021/04/20 07:54:54;;;;;;;3.27;2.45;;;;;;;33.12;28.54;159892.86;1732356;83;21797;-72
2021/04/20 07:57:30;;;;;;;2.58;2.27;;;;;;;33.34;28.31;159952.97;1733469;83;21238;-71
2021/04/20 08:00:16;;;;;;;3.02;2.72;;;;;;;33.72;27.18;160053.17;1734812;83;21194;-71
2021/04/20 08:03:22;;;;;;;2.83;2.52;;;;;;;33.62;27.25;160027.78;1734685;83;21194;-71
2021/04/20 08:06:02;;;;;;;5.10;2.60;;;;;;;33.75;27.23;160061.20;1744275;82;21328;-71
2021/04/20 08:08:48;;;;;;;2.67;1.82;;;;;;;33.94;27.22;160111.94;1751805;80;21359;-71
2021/04/20 08:11:53;;;;;;;3.37;2.10;;;;;;;34.24;27.01;160193.50;1732331;83;21745;-72
2021/04/20 08:14:51;;;;;;;5.40;2.67;;;;;;;34.49;26.64;160261.64;1732490;83;21225;-71
2021/04/20 08:17:28;;;;;;;6.15;3.22;;;;;;;34.81;26.52;160347.28;1732233;83;21344;-72
2021/04/20 08:20:08;;;;;;;4.60;2.83;;;;;;;35.16;26.56;160440.92;1735229;82;21336;-73
2021/04/20 08:22:40;;;;;;;4.12;2.92;;;;;;;35.33;26.42;160486.36;1737201;82;21348;-71
2021/04/20 08:25:20;;;;;;;4.40;3.05;;;;;;;35.34;26.41;160490.41;1737120;82;21697;-72
2021/04/20 08:28:11;;;;;;;6.95;4.03;;;;;;;35.32;26.53;160485.03;1716729;81;21324;-71
2021/04/20 08:30:59;;;;;;;6.47;4.03;;;;;;;35.19;26.47;160448.91;1762652;81;21180;-71
2021/04/20 08:33:34;;;;;;;7.15;3.30;;;;;;;35.10;26.31;160423.53;1760908;81;21230;-72
2021/04/20 08:36:39;;;;;;;6.17;3.37;;;;;;;34.91;26.71;160372.64;1761013;80;21392;-72
2021/04/20 08:39:21;;;;;;;4.30;3.52;;;;;;;34.88;26.82;160365.97;1745178;82;21226;-71
2021/04/20 08:42:07;;;;;;;3.30;2.98;;;;;;;34.59;26.91;160288.47;1758201;81;21329;-72
2021/04/20 08:44:51;;;;;;;5.20;4.00;;;;;;;34.24;27.25;160194.87;1757932;81;21222;-72
2021/04/20 08:47:51;;;;;;;5.55;4.05;;;;;;;34.14;27.48;160166.80;1757893;81;21261;-72
2021/04/20 08:50:25;;;;;;;5.70;4.45;;;;;;;34.19;27.54;160180.19;1727420;82;21340;-72
2021/04/20 08:53:29;;;;;;;5.58;4.45;;;;;;;34.24;27.71;160193.50;1758105;81;21341;-72
2021/04/20 08:56:09;;;;;;;5.35;3.77;;;;;;;34.34;27.76;160221.59;1758035;81;21179;-73
2021/04/20 08:59:04;;;;;;;6.58;3.65;;;;;;;34.28;27.64;160205.53;1753484;82;21206;-72
2021/04/20 09:02:02;;;;;;;4.25;3.58;;;;;;;34.19;27.43;160180.19;1707503;84;21730;-71
2021/04/20 09:04:55;;;;;;;6.05;3.67;;;;;;;34.08;27.79;160150.72;1699530;84;21251;-71
2021/04/20 09:08:04;;;;;;;4.17;3.27;;;;;;;34.27;27.81;160202.84;1699621;84;21384;-71
2021/04/20 09:10:50;;;;;;;3.95;3.02;;;;;;;34.37;27.35;160228.25;1699618;84;21207;-71
2021/04/20 09:13:25;;;;;;;4.12;3.20;;;;;;;34.43;27.27;160244.31;1711641;84;21356;-71
2021/04/20 09:16:07;;;;;;;3.65;2.95;;;;;;;34.32;27.24;160216.23;1714198;84;21364;-71
2021/04/20 09:18:43;;;;;;;;;;;;;;;34.34;27.20;160220.22;1715335;84;21772;-71
2021/04/20 09:21:26;;;;;;;3.87;2.77;;;;;;;34.57;27.17;160283.13;1713833;84;20288;-71
2021/04/20 09:24:17;;;;;;;3.90;3.12;;;;;;;35.02;26.80;160403.42;1753994;80;21867;-71
2021/04/20 09:27:16;;;;;;;3.50;2.90;;;;;;;35.61;26.64;160561.31;1777255;80;21222;-72
2021/04/20 09:30:14;;;;;;;4.00;2.92;;;;;;;36.10;26.01;160693.80;1791608;79;21202;-72
2021/04/20 09:33:12;;;;;;;4.65;3.10;;;;;;;35.96;25.68;160656.27;1781677;79;21221;-71
2021/04/20 09:35:44;;;;;;;3.85;2.92;;;;;;;35.31;26.05;160482.36;1801474;79;21170;-71
2021/04/20 09:38:16;;;;;;;3.50;2.80;;;;;;;34.59;26.58;160288.47;1801264;79;21180;-73
2021/04/20 09:40:49;;;;;;;4.58;3.15;;;;;;;34.39;26.65;160233.61;1801478;79;21339;-72
2021/04/20 09:43:31;;;;;;;6.67;3.98;;;;;;;34.18;26.73;160177.50;1801499;79;21341;-72
2021/04/20 09:46:14;;;;;;;3.37;3.02;;;;;;;33.89;27.08;160099.92;1801519;79;21836;-71
2021/04/20 09:49:09;;;;;;;5.35;3.12;;;;;;;33.43;27.52;159977.00;1801208;79;21257;-72
2021/04/20 09:51:46;;;;;;;5.03;2.80;;;;;;;33.39;27.54;159966.30;1801558;79;21186;-72
2021/04/20 09:54:25;;;;;;;3.25;2.95;;;;;;;33.72;27.19;160054.55;1801228;79;21273;-73
2021/04/20 09:57:01;;;;;;;5.35;3.12;;;;;;;33.95;26.78;160114.63;1801310;79;21190;-70
2021/04/20 09:59:57;;;;;;;3.05;2.70;;;;;;;34.25;26.52;160197.55;1801353;79;21371;-70
2021/04/20 10:02:56;;;;;;;2.62;2.37;;;;;;;34.67;26.19;160308.47;1801421;79;21482;-69
2021/04/20 10:05:50;;;;;;;4.33;3.17;;;;;;;35.59;25.03;160557.28;1801430;79;21351;-69
2021/04/20 10:08:56;;;;;;;5.08;2.50;;;;;;;35.82;25.22;160617.50;1801262;79;21170;-71
2021/04/20 10:12:19;;;;;;;4.37;2.15;;;;;;;35.64;24.81;160570.67;1801251;79;21736;-72
2021/04/20 10:15:23;;;;;;;3.30;2.70;;;;;;;35.15;24.49;160439.56;1801452;79;21202;-71
2021/04/20 10:18:28;;;;;;;5.20;2.37;;;;;;;34.56;25.26;160279.03;1801194;79;21705;-72
2021/04/20 10:21:20;;;;;;;4.10;3.62;;;;;;;34.38;25.64;160230.94;1800807;79;21419;-73
2021/04/20 10:24:12;;;;;;;3.95;2.60;;;;;;;34.94;25.72;160382.05;1793963;79;21233;-71
2021/04/20 10:27:09;;;;;;;3.50;2.72;;;;;;;36.01;25.28;160668.36;1801402;79;21674;-71
2021/04/20 10:30:11;;;;;;;3.35;2.37;;;;;;;36.26;24.85;160737.94;1801218;79;21832;-71
2021/04/20 10:32:54;;;;;;;5.05;3.00;;;;;;;35.88;24.62;160634.88;1801638;79;21356;-72
2021/04/20 10:35:37;;;;;;;6.83;4.60;;;;;;;34.95;25.07;160383.36;1801409;79;21316;-71
2021/04/20 10:38:16;;;;;;;7.08;4.90;;;;;;;35.07;25.06;160416.81;1801277;79;21321;-71
2021/04/20 10:40:49;;;;;;;4.80;3.35;;;;;;;34.95;25.12;160384.72;1801158;79;21182;-72
2021/04/20 10:43:23;;;;;;;3.35;2.92;;;;;;;34.78;25.36;160337.94;1801486;79;21225;-72
2021/04/20 10:45:56;;;;;;;4.25;3.42;;;;;;;34.55;25.56;160276.34;1801335;79;21248;-71
2021/04/20 10:48:28;;;;;;;6.22;3.33;;;;;;;34.43;25.92;160245.63;1801428;79;21301;-71
2021/04/20 10:51:00;;;;;;;4.10;2.80;;;;;;;34.35;26.10;160224.27;1801251;79;21253;-71
2021/04/20 10:53:34;;;;;;;3.83;2.92;;;;;;;34.42;26.08;160241.64;1801423;79;21309;-72
2021/04/20 10:56:12;;;;;;;4.05;2.90;;;;;;;34.69;26.05;160313.83;1801341;79;21328;-72
2021/04/20 10:58:54;;;;;;;5.53;4.17;;;;;;;34.65;25.94;160303.17;1801398;79;21701;-71
2021/04/20 11:01:30;;;;;;;2.85;2.52;;;;;;;35.20;25.15;160451.58;1801443;79;21182;-71
2021/04/20 11:04:05;;;;;;;2.72;2.37;;;;;;;35.29;25.21;160475.69;1801547;79;21360;-72
2021/04/20 11:06:56;;;;;;;3.22;2.47;;;;;;;35.43;25.04;160514.45;1801462;79;21308;-71
2021/04/20 11:09:33;;;;;;;2.95;2.72;;;;;;;35.46;25.05;160522.50;1801373;79;21178;-71
2021/04/20 11:12:19;;;;;;;4.60;2.95;;;;;;;35.34;25.14;160490.41;1801177;79;21163;-76
2021/04/20 11:14:53;;;;;;;2.35;2.08;;;;;;;35.13;25.44;160434.19;1801446;79;21304;-71
2021/04/20 11:17:48;;;;;;;3.90;2.70;;;;;;;35.09;25.53;160422.17;1801637;79;21757;-72
2021/04/20 11:20:31;;;;;;;3.02;2.70;;;;;;;35.07;25.42;160415.50;1792144;79;21175;-71
2021/04/20 11:23:12;;;;;;;3.30;2.75;;;;;;;34.97;25.59;160388.72;1801322;79;21205;-71
2021/04/20 11:25:55;;;;;;;3.65;2.83;;;;;;;34.90;25.61;160371.33;1801430;79;21836;-71
2021/04/20 11:28:49;;;;;;;4.05;2.65;;;;;;;34.78;25.36;160337.94;1801192;79;21222;-71
2021/04/20 11:31:34;;;;;;;3.08;2.77;;;;;;;34.60;25.53;160291.16;1800372;79;21232;-72
2021/04/20 11:34:28;;;;;;;3.95;3.00;;;;;;;34.56;25.40;160280.39;1739877;81;21326;-71
2021/04/20 11:37:05;;;;;;;4.35;3.08;;;;;;;34.66;25.23;160307.16;1733959;83;21424;-71
2021/04/20 11:39:57;;;;;;;3.00;2.60;;;;;;;34.91;25.27;160372.64;1798969;80;21381;-74
2021/04/20 11:42:44;;;;;;;3.95;3.12;;;;;;;35.15;25.03;160438.25;1798711;80;21396;-71
2021/04/20 11:45:19;;;;;;;2.33;2.12;;;;;;;35.38;24.94;160501.06;1798987;80;21309;-71
2021/04/20 11:48:10;;;;;;;3.25;2.70;;;;;;;35.55;24.49;160545.25;1798847;80;21179;-71
2021/04/20 11:50:58;;;;;;;3.58;2.75;;;;;;;35.50;24.35;160531.84;1760825;81;21198;-72
2021/04/20 11:53:39;;;;;;;4.42;2.58;;;;;;;35.29;24.79;160475.69;1734295;83;21338;-71
2021/04/20 11:56:11;;;;;;;4.05;3.08;;;;;;;34.80;25.16;160344.61;1735184;82;21167;-72
2021/04/20 11:58:45;;;;;;;3.25;2.70;;;;;;;35.14;25.16;160436.88;1736647;82;21798;-71
2021/04/20 12:01:22;;;;;;;2.67;2.40;;;;;;;35.14;25.34;160436.88;1716172;82;21210;-71
2021/04/20 12:03:59;;;;;;;3.25;2.25;;;;;;;35.50;24.73;160531.84;1736399;82;21368;-71
2021/04/20 12:06:45;;;;;;;4.30;3.22;;;;;;;35.72;24.65;160590.75;1736685;82;21214;-72
2021/04/20 12:09:26;;;;;;;4.05;2.77;;;;;;;35.72;24.52;160590.75;1736661;82;21221;-71
2021/04/20 12:11:59;;;;;;;4.22;3.30;;;;;;;35.28;24.94;160473.00;1736497;82;21871;-71
2021/04/20 12:14:32;;;;;;;5.60;3.00;;;;;;;35.55;24.82;160545.25;1736757;82;21368;-71
2021/04/20 12:17:04;;;;;;;3.67;2.60;;;;;;;36.07;24.54;160684.44;1736609;82;21380;-72